Time;durP1;ratioP1;P1;durP2;ratioP2;P2;SDS_P1;SDS_P2;PMS_P1;PMS_P2;Temp;Humidity;BMP_temperature;BMP_pressure;BME280_temperature;BME280_humidity;BME280_pressure;Samples;Min_cycle;Max_cycle;Signal;HPM_P1;HPM_P2
2021/09/22 00:01:20;;;;;;;5.90;3.60;;;10.20;99.90;10.00;97690.00;;;;5085932;28;20219;-69
2021/09/22 00:04:09;;;;;;;4.97;3.57;;;10.20;99.90;10.10;97695.00;;;;5085953;28;20214;-70
2021/09/22 00:06:58;;;;;;;4.13;3.73;;;10.20;99.90;10.00;97690.00;;;;5067601;28;20200;-69
2021/09/22 00:09:47;;;;;;;5.10;3.97;;;10.20;99.90;10.00;97694.00;;;;5066207;28;20230;-69
2021/09/22 00:12:36;;;;;;;5.63;3.47;;;10.30;99.90;10.00;97691.00;;;;5069270;28;20215;-69
2021/09/22 00:15:26;;;;;;;6.37;3.90;;;10.30;99.90;9.80;97686.00;;;;5067867;28;20200;-69
2021/09/22 00:18:17;;;;;;;6.97;3.87;;;10.20;99.90;9.90;97678.00;;;;5081026;28;20192;-69
2021/09/22 00:21:07;;;;;;;4.97;4.40;;;10.20;99.90;9.80;97675.00;;;;5068901;28;20235;-69
2021/09/22 00:23:56;;;;;;;3.93;3.53;;;10.20;99.90;9.80;97663.00;;;;5067990;28;20580;-68
2021/09/22 00:26:45;;;;;;;9.13;4.50;;;10.10;99.90;9.70;97653.00;;;;5067593;28;20208;-69
2021/09/22 00:29:34;;;;;;;8.07;3.90;;;10.10;99.90;9.70;97652.00;;;;5067615;28;20269;-69
2021/09/22 00:32:22;;;;;;;6.63;3.80;;;10.00;99.90;9.80;97646.00;;;;5069073;28;20220;-69
2021/09/22 00:35:14;;;;;;;4.87;4.37;;;10.00;99.90;9.80;97646.00;;;;5079925;28;20210;-69
2021/09/22 00:38:03;;;;;;;4.80;4.30;;;10.00;99.90;9.80;97641.00;;;;5068961;28;20226;-69
2021/09/22 00:40:52;;;;;;;4.83;4.27;;;10.00;99.90;9.60;97635.00;;;;5086675;28;20215;-69
2021/09/22 00:43:41;;;;;;;5.20;4.70;;;10.00;99.90;9.70;97630.00;;;;5088629;28;20207;-69
2021/09/22 00:46:30;;;;;;;4.00;3.60;;;10.00;99.90;9.50;97632.00;;;;5088359;28;20236;-69
2021/09/22 00:49:19;;;;;;;5.47;4.43;;;10.00;99.90;9.60;97631.00;;;;5084466;28;20267;-69
2021/09/22 00:52:09;;;;;;;4.30;3.90;;;9.90;99.90;9.50;97637.00;;;;5067661;28;20713;-69
2021/09/22 00:54:58;;;;;;;5.20;4.17;;;9.90;99.90;9.60;97620.00;;;;5067038;28;20226;-69
2021/09/22 00:57:51;;;;;;;4.73;3.90;;;9.90;99.90;9.60;97617.00;;;;5068163;28;20218;-69
2021/09/22 01:00:40;;;;;;;6.33;4.90;;;9.90;99.90;9.70;97612.00;;;;5064749;28;20443;-70
2021/09/22 01:03:29;;;;;;;5.67;3.83;;;9.90;99.90;9.80;97607.00;;;;5077034;28;20713;-70
2021/09/22 01:06:18;;;;;;;4.57;4.07;;;9.90;99.90;9.90;97596.00;;;;5068736;28;20262;-69
2021/09/22 01:09:09;;;;;;;5.13;4.13;;;10.00;99.90;9.80;97588.00;;;;5067305;28;20594;-70
2021/09/22 01:11:58;;;;;;;4.90;3.73;;;10.00;99.90;9.80;97582.00;;;;5066783;28;20228;-68
2021/09/22 01:14:47;;;;;;;4.10;3.53;;;10.00;99.90;9.90;97600.00;;;;5066794;28;20204;-67
2021/09/22 01:17:36;;;;;;;4.40;4.00;;;10.00;99.90;9.90;97593.00;;;;5079882;28;20586;-70
2021/09/22 01:20:27;;;;;;;4.27;3.77;;;10.00;99.90;9.70;97592.00;;;;5064464;28;20211;-68
2021/09/22 01:23:18;;;;;;;4.57;3.70;;;10.00;99.90;9.70;97593.00;;;;5066848;28;20231;-69
2021/09/22 01:26:07;;;;;;;4.30;3.87;;;10.00;99.90;9.80;97591.00;;;;5067312;28;20203;-69
2021/09/22 01:28:56;;;;;;;4.37;3.97;;;10.00;99.90;9.80;97593.00;;;;5067121;28;20561;-69
2021/09/22 01:31:45;;;;;;;4.77;3.77;;;10.00;99.90;9.80;97592.00;;;;5067216;28;20251;-69
2021/09/22 01:34:34;;;;;;;4.37;3.97;;;10.00;99.90;9.90;97586.00;;;;5070777;28;20205;-70
2021/09/22 01:37:23;;;;;;;5.27;4.17;;;10.00;99.90;9.70;97594.00;;;;5066407;28;20289;-67
2021/09/22 01:40:14;;;;;;;7.97;4.00;;;10.00;99.90;9.40;97577.00;;;;5065789;28;20211;-69
2021/09/22 01:43:04;;;;;;;4.00;3.70;;;10.00;99.90;9.50;97578.00;;;;5067066;28;20239;-70
2021/09/22 01:45:54;;;;;;;7.83;4.43;;;9.90;99.90;9.50;97576.00;;;;5066049;28;20437;-70
2021/09/22 01:48:43;;;;;;;4.67;4.23;;;9.90;99.90;9.40;97570.00;;;;5066253;28;20215;-69
2021/09/22 01:51:32;;;;;;;4.77;3.53;;;9.80;99.90;9.40;97570.00;;;;5065286;28;20235;-69
2021/09/22 01:54:21;;;;;;;4.93;3.90;;;9.80;99.90;9.40;97564.00;;;;5065249;28;20200;-69
2021/09/22 01:57:12;;;;;;;5.27;3.90;;;9.70;99.90;9.40;97574.00;;;;5066739;28;20730;-69
2021/09/22 02:00:01;;;;;;;5.80;3.80;;;9.70;99.90;9.40;97569.00;;;;5065630;28;20208;-70
2021/09/22 02:02:50;;;;;;;4.67;4.00;;;9.70;99.90;9.50;97580.00;;;;5067465;28;20243;-69
2021/09/22 02:05:38;;;;;;;5.03;3.70;;;9.70;99.90;9.30;97575.00;;;;5073725;28;20203;-69
2021/09/22 02:08:27;;;;;;;4.67;3.87;;;9.60;99.90;9.30;97573.00;;;;5066372;28;20200;-69
2021/09/22 02:11:16;;;;;;;7.03;4.00;;;9.60;99.90;9.30;97569.00;;;;5069325;28;20199;-69
2021/09/22 02:14:07;;;;;;;6.03;4.00;;;9.60;99.90;9.30;97567.00;;;;5072108;28;20199;-69
2021/09/22 02:16:55;;;;;;;4.57;4.17;;;9.60;99.90;9.30;97579.00;;;;5066024;28;20204;-69
2021/09/22 02:19:44;;;;;;;4.53;3.87;;;9.60;99.90;9.00;97568.00;;;;5065067;28;20216;-69
2021/09/22 02:22:33;;;;;;;4.13;3.73;;;9.50;99.90;9.00;97567.00;;;;5065146;28;20231;-69
2021/09/22 02:25:23;;;;;;;4.70;4.30;;;9.50;99.90;9.00;97576.00;;;;5065324;28;20203;-69
2021/09/22 02:28:11;;;;;;;4.87;4.33;;;9.40;99.90;8.80;97567.00;;;;5066053;28;20199;-69
2021/09/22 02:39:48;;;;;;;5.33;4.33;;;9.30;99.90;8.80;97566.00;;;;5083898;28;20194;-69
2021/09/22 02:42:38;;;;;;;3.80;3.43;;;9.20;99.90;8.60;97578.00;;;;5104073;28;20230;-69
2021/09/22 02:45:27;;;;;;;5.23;4.80;;;9.10;99.90;8.60;97558.00;;;;5070747;28;20211;-69
2021/09/22 02:48:16;;;;;;;7.47;4.13;;;9.10;99.90;8.40;97554.00;;;;5071141;28;20207;-69
2021/09/22 02:51:05;;;;;;;4.57;4.13;;;9.00;99.90;8.50;97540.00;;;;5064844;28;20208;-69
2021/09/22 02:53:54;;;;;;;5.80;4.40;;;8.90;99.90;8.40;97547.00;;;;5063634;28;20223;-69
2021/09/22 02:56:44;;;;;;;4.70;4.30;;;8.90;99.90;8.10;97533.00;;;;5065476;28;20200;-69
2021/09/22 02:59:33;;;;;;;7.43;3.80;;;8.80;99.90;8.20;97541.00;;;;5064742;28;20200;-70
2021/09/22 03:02:22;;;;;;;4.50;4.10;;;8.70;99.90;8.10;97533.00;;;;5064906;28;20223;-68
2021/09/22 03:05:12;;;;;;;4.07;3.67;;;8.70;99.90;8.10;97529.00;;;;5063931;28;20577;-69
2021/09/22 03:08:02;;;;;;;4.60;4.13;;;8.60;99.90;8.20;97535.00;;;;5064775;28;20196;-70
2021/09/22 03:10:51;;;;;;;4.93;4.17;;;8.60;99.90;8.10;97532.00;;;;5064139;28;20216;-70
2021/09/22 03:13:41;;;;;;;6.73;4.30;;;8.50;99.90;8.20;97527.00;;;;5065998;28;20215;-69
2021/09/22 03:16:32;;;;;;;6.20;4.07;;;8.60;99.90;8.20;97515.00;;;;5065520;28;20200;-69
2021/09/22 03:19:21;;;;;;;4.37;3.97;;;8.60;99.90;8.30;97525.00;;;;5065175;28;20257;-69
2021/09/22 03:22:10;;;;;;;4.47;4.07;;;8.60;99.90;8.30;97509.00;;;;5065539;28;20239;-69
2021/09/22 03:24:59;;;;;;;5.20;4.20;;;8.70;99.90;8.20;97510.00;;;;5065789;28;20212;-68
2021/09/22 03:27:48;;;;;;;7.23;3.90;;;8.60;99.90;8.30;97505.00;;;;5066464;28;20207;-69
2021/09/22 03:30:38;;;;;;;3.47;3.17;;;8.70;99.90;8.30;97505.00;;;;5064616;28;20678;-69
2021/09/22 03:33:27;;;;;;;4.87;4.37;;;8.70;99.90;8.30;97502.00;;;;5100461;28;20210;-69
2021/09/22 03:36:16;;;;;;;6.43;4.00;;;8.70;99.90;8.40;97502.00;;;;5074843;28;20204;-69
2021/09/22 03:39:05;;;;;;;3.93;3.53;;;8.70;99.90;8.40;97501.00;;;;5064762;28;20223;-69
2021/09/22 03:41:54;;;;;;;6.77;3.93;;;8.70;99.90;8.30;97495.00;;;;5063960;28;20232;-69
2021/09/22 03:44:43;;;;;;;4.40;3.53;;;8.70;99.90;8.20;97514.00;;;;5069100;28;20200;-70
2021/09/22 03:47:33;;;;;;;4.47;3.77;;;8.70;99.90;8.20;97499.00;;;;5069758;28;20215;-70
2021/09/22 03:50:22;;;;;;;4.63;4.03;;;8.60;99.90;8.20;97495.00;;;;5068029;28;20212;-69
2021/09/22 03:53:11;;;;;;;4.83;3.77;;;8.60;99.90;8.20;97495.00;;;;5067019;28;20596;-69
2021/09/22 03:56:00;;;;;;;5.00;3.77;;;8.60;99.90;8.20;97491.00;;;;5083354;28;20206;-67
2021/09/22 03:58:49;;;;;;;3.10;2.50;;;8.60;99.90;8.00;97492.00;;;;5099761;28;20218;-68
2021/09/22 04:01:38;;;;;;;4.67;3.77;;;8.60;99.90;7.90;97491.00;;;;5090706;28;20228;-67
2021/09/22 04:04:28;;;;;;;3.30;2.97;;;8.50;99.90;7.80;97485.00;;;;5081685;28;20207;-68
2021/09/22 04:07:18;;;;;;;4.00;3.60;;;8.50;99.90;7.90;97489.00;;;;5068736;28;20294;-68
2021/09/22 04:10:08;;;;;;;5.40;4.07;;;8.40;99.90;7.90;97485.00;;;;5066328;28;20671;-68
2021/09/22 04:12:57;;;;;;;4.03;3.67;;;8.40;99.90;8.00;97486.00;;;;5069119;28;20716;-69
2021/09/22 04:15:46;;;;;;;4.63;4.07;;;8.40;99.90;8.00;97482.00;;;;5068950;28;20200;-67
2021/09/22 04:18:35;;;;;;;12.27;4.30;;;8.40;99.90;8.00;97482.00;;;;5068426;28;20208;-69
2021/09/22 04:21:25;;;;;;;5.80;3.73;;;8.40;99.90;8.10;97490.00;;;;5068096;28;20995;-69
2021/09/22 04:24:14;;;;;;;5.07;4.63;;;8.40;99.90;8.10;97481.00;;;;5068859;28;20274;-67
2021/09/22 04:27:04;;;;;;;4.17;3.70;;;8.40;99.90;8.00;97481.00;;;;5068496;28;20218;-68
2021/09/22 04:29:53;;;;;;;3.97;3.30;;;8.40;99.90;7.80;97472.00;;;;5067259;28;20600;-68
2021/09/22 04:32:42;;;;;;;6.07;3.53;;;8.40;99.90;8.10;97473.00;;;;5067819;28;20220;-69
2021/09/22 04:35:32;;;;;;;8.13;4.50;;;8.40;99.90;8.20;97473.00;;;;5079024;28;20207;-69
2021/09/22 04:38:23;;;;;;;3.70;3.40;;;8.50;99.90;8.20;97477.00;;;;5063655;28;20689;-69
2021/09/22 04:41:12;;;;;;;3.70;3.40;;;8.50;99.90;8.10;97475.00;;;;5087980;28;20205;-69
2021/09/22 04:44:01;;;;;;;4.50;4.00;;;8.50;99.90;7.80;97470.00;;;;5068888;28;20253;-70
2021/09/22 04:46:50;;;;;;;4.57;3.97;;;8.40;99.90;7.70;97476.00;;;;5067343;28;20238;-69
2021/09/22 04:49:38;;;;;;;6.33;4.10;;;8.30;99.90;7.80;97475.00;;;;5066998;28;20702;-69
2021/09/22 04:52:27;;;;;;;5.33;4.53;;;8.30;99.90;7.80;97464.00;;;;5080537;28;20215;-69
2021/09/22 04:55:18;;;;;;;4.23;3.87;;;8.20;99.90;7.60;97462.00;;;;5070241;28;20208;-69
2021/09/22 04:58:07;;;;;;;6.93;4.20;;;8.20;99.90;7.70;97454.00;;;;5067918;28;20555;-68
2021/09/22 05:00:59;;;;;;;5.03;4.47;;;8.20;99.90;7.80;97456.00;;;;5066364;28;20212;-69
2021/09/22 05:03:48;;;;;;;5.03;4.00;;;8.20;99.90;7.80;97448.00;;;;5077330;28;20234;-69
2021/09/22 05:06:37;;;;;;;4.23;3.73;;;8.20;99.90;7.80;97442.00;;;;5086698;28;20203;-69
2021/09/22 05:09:26;;;;;;;5.90;4.30;;;8.20;99.90;7.90;97443.00;;;;5073459;28;20226;-69
2021/09/22 05:12:16;;;;;;;5.10;4.23;;;8.20;99.90;7.90;97444.00;;;;5073816;28;20525;-69
2021/09/22 05:15:07;;;;;;;6.70;4.80;;;8.20;99.90;7.70;97436.00;;;;5076217;28;20670;-69
2021/09/22 05:17:56;;;;;;;6.37;4.10;;;8.20;99.90;7.70;97431.00;;;;5085429;28;20217;-69
2021/09/22 05:20:45;;;;;;;5.57;5.07;;;8.20;99.90;7.80;97422.00;;;;5085182;28;20196;-69
2021/09/22 05:23:34;;;;;;;3.73;3.33;;;8.20;99.90;7.90;97432.00;;;;5086254;28;20268;-67
2021/09/22 05:26:23;;;;;;;5.20;4.17;;;8.20;99.90;7.90;97435.00;;;;5087245;28;20204;-69
2021/09/22 05:29:13;;;;;;;5.73;3.93;;;8.20;99.90;8.00;97438.00;;;;5072366;28;20214;-69
2021/09/22 05:32:02;;;;;;;5.50;4.80;;;8.20;99.90;7.90;97442.00;;;;5079871;28;20226;-70
2021/09/22 05:34:51;;;;;;;6.53;4.37;;;8.20;99.90;8.00;97443.00;;;;5089460;28;20255;-70
2021/09/22 05:37:40;;;;;;;4.70;4.20;;;8.20;99.90;7.90;97423.00;;;;5075089;28;20687;-68
2021/09/22 05:40:29;;;;;;;5.57;4.70;;;8.30;99.90;8.20;97429.00;;;;5077913;28;20196;-68
2021/09/22 05:43:18;;;;;;;4.37;3.97;;;8.30;99.90;8.30;97431.00;;;;5066329;28;20223;-69
2021/09/22 05:46:08;;;;;;;4.80;4.30;;;8.40;99.90;8.30;97434.00;;;;5065589;28;20214;-69
2021/09/22 05:48:57;;;;;;;5.03;4.53;;;8.50;99.90;8.00;97432.00;;;;5082888;28;20191;-69
2021/09/22 05:51:46;;;;;;;6.33;4.57;;;8.50;99.90;8.30;97431.00;;;;5066341;28;20733;-69
2021/09/22 05:54:35;;;;;;;5.10;4.00;;;8.50;99.90;8.60;97443.00;;;;5071500;28;20203;-70
2021/09/22 05:57:24;;;;;;;7.43;5.33;;;8.60;99.90;8.60;97444.00;;;;5062199;28;20210;-68
2021/09/22 06:00:14;;;;;;;4.80;4.40;;;8.70;99.90;8.30;97443.00;;;;5072621;28;20545;-69
2021/09/22 06:03:09;;;;;;;4.53;4.10;;;8.70;99.90;8.70;97447.00;;;;5077298;28;20246;-69
2021/09/22 06:05:57;;;;;;;6.23;4.77;;;8.80;99.90;8.80;97449.00;;;;5093269;28;20199;-69
2021/09/22 06:08:47;;;;;;;6.03;4.70;;;8.90;99.90;8.60;97455.00;;;;5082754;28;20212;-69
2021/09/22 06:11:36;;;;;;;4.33;3.90;;;8.60;99.90;8.70;97448.00;;;;5080424;28;20785;-70
2021/09/22 06:14:24;;;;;;;5.60;4.47;;;9.00;99.90;8.60;97439.00;;;;5090468;28;20209;-67
2021/09/22 06:17:14;;;;;;;5.20;4.60;;;9.00;99.90;8.70;97439.00;;;;5082558;28;20199;-69
2021/09/22 06:20:07;;;;;;;10.03;4.23;;;9.00;99.90;8.80;97445.00;;;;5091915;28;20236;-69
2021/09/22 06:22:56;;;;;;;7.13;4.30;;;9.10;99.90;8.80;97449.00;;;;5089366;28;20223;-68
2021/09/22 06:25:45;;;;;;;5.07;3.93;;;9.10;99.90;8.90;97434.00;;;;5076854;28;20203;-68
2021/09/22 06:28:34;;;;;;;5.80;5.03;;;9.20;99.90;8.90;97430.00;;;;5076265;28;20207;-68
2021/09/22 06:31:23;;;;;;;5.83;3.90;;;9.20;99.90;8.90;97435.00;;;;5089029;28;20207;-68
2021/09/22 06:34:12;;;;;;;5.27;4.73;;;9.20;99.90;9.20;97430.00;;;;5080324;28;20198;-68
2021/09/22 06:37:03;;;;;;;5.30;4.30;;;9.30;99.90;9.40;97422.00;;;;5092719;28;20210;-69
2021/09/22 06:39:52;;;;;;;7.60;4.20;;;9.40;99.90;9.50;97426.00;;;;5075416;28;20489;-68
2021/09/22 06:42:40;;;;;;;6.93;4.33;;;9.50;99.90;9.40;97413.00;;;;5082984;28;20767;-69
2021/09/22 06:45:29;;;;;;;7.93;4.63;;;9.60;99.90;9.70;97404.00;;;;5087442;28;20221;-69
2021/09/22 06:48:18;;;;;;;6.87;4.87;;;9.70;99.90;10.10;97423.00;;;;5082657;28;20194;-68
2021/09/22 06:51:07;;;;;;;7.03;4.50;;;9.80;99.90;10.20;97424.00;;;;5086487;28;20202;-68
2021/09/22 06:53:57;;;;;;;6.57;4.37;;;10.00;99.90;10.40;97431.00;;;;5087721;28;20701;-69
2021/09/22 06:56:46;;;;;;;10.20;4.77;;;10.10;99.90;10.50;97430.00;;;;5085313;28;20207;-68
2021/09/22 06:59:35;;;;;;;7.17;4.83;;;10.30;99.90;10.60;97435.00;;;;5077832;28;20203;-68
2021/09/22 07:02:24;;;;;;;7.50;4.60;;;10.40;99.90;10.70;97423.00;;;;5073380;28;20219;-68
2021/09/22 07:05:15;;;;;;;6.27;4.70;;;10.50;99.90;10.30;97430.00;;;;5084440;28;20215;-68
2021/09/22 07:08:04;;;;;;;8.53;4.13;;;10.60;99.90;10.40;97432.00;;;;5086085;28;20191;-68
2021/09/22 07:10:54;;;;;;;6.30;4.83;;;10.60;99.90;10.40;97434.00;;;;5078681;28;20217;-71
2021/09/22 07:13:43;;;;;;;4.30;3.87;;;10.60;99.90;10.40;97434.00;;;;5088031;28;20579;-70
2021/09/22 07:16:32;;;;;;;6.93;4.53;;;10.60;99.90;10.70;97427.00;;;;5082338;28;20199;-70
2021/09/22 07:19:21;;;;;;;6.40;4.17;;;10.70;99.90;11.10;97434.00;;;;5087164;28;20191;-70
2021/09/22 07:22:10;;;;;;;5.63;4.13;;;10.80;99.90;11.30;97444.00;;;;5087514;28;20229;-70
2021/09/22 07:24:59;;;;;;;5.37;3.67;;;11.00;99.90;11.50;97445.00;;;;5090407;28;20226;-69
2021/09/22 07:27:49;;;;;;;5.37;4.50;;;11.20;99.90;11.50;97443.00;;;;5081466;28;20207;-69
2021/09/22 07:30:38;;;;;;;5.43;4.83;;;11.40;99.90;11.90;97445.00;;;;5082194;28;20195;-69
2021/09/22 07:33:27;;;;;;;5.60;4.63;;;11.50;99.90;12.20;97435.00;;;;5082476;28;20709;-68
2021/09/22 07:36:16;;;;;;;7.43;4.33;;;11.70;99.90;12.30;97436.00;;;;5084332;28;20200;-68
2021/09/22 07:39:05;;;;;;;5.77;4.87;;;11.90;99.90;12.50;97443.00;;;;5086714;28;20203;-70
2021/09/22 07:41:54;;;;;;;5.23;4.73;;;12.10;99.90;12.70;97450.00;;;;5087148;28;20224;-69
2021/09/22 07:44:49;;;;;;;4.73;4.30;;;12.30;99.90;12.60;97443.00;;;;5083644;28;20595;-70
2021/09/22 07:47:40;;;;;;;6.70;5.50;;;12.40;99.90;12.50;97449.00;;;;5083779;28;20587;-68
2021/09/22 07:50:29;;;;;;;7.70;4.93;;;12.50;99.90;12.70;97457.00;;;;5082592;28;20199;-69
2021/09/22 07:53:18;;;;;;;6.17;5.53;;;12.60;99.90;12.70;97460.00;;;;5091286;28;20222;-68
2021/09/22 07:56:07;;;;;;;5.93;5.33;;;12.70;99.90;12.80;97454.00;;;;5079824;28;20215;-69
2021/09/22 07:58:56;;;;;;;9.07;5.57;;;12.70;99.90;12.90;97456.00;;;;5081326;28;20211;-69
2021/09/22 08:01:46;;;;;;;6.40;5.30;;;12.80;99.90;13.00;97470.00;;;;5083973;28;20721;-68
2021/09/22 08:04:35;;;;;;;5.40;4.17;;;12.90;99.90;13.00;97467.00;;;;5084061;28;20931;-69
2021/09/22 08:07:24;;;;;;;5.00;4.50;;;12.90;99.90;13.00;97477.00;;;;5078945;28;20569;-69
2021/09/22 08:10:17;;;;;;;9.97;4.53;;;13.00;99.90;13.00;97472.00;;;;5084393;28;20206;-69
2021/09/22 08:13:06;;;;;;;6.53;4.30;;;13.00;99.90;13.00;97471.00;;;;5085260;28;20227;-69
2021/09/22 08:15:55;;;;;;;4.03;3.63;;;13.00;99.90;13.10;97467.00;;;;5083504;28;20210;-70
2021/09/22 08:18:46;;;;;;;6.07;3.80;;;13.00;99.90;13.20;97465.00;;;;5085207;28;20203;-69
2021/09/22 08:21:35;;;;;;;3.60;3.30;;;13.00;99.90;13.00;97457.00;;;;5084738;28;20219;-69
2021/09/22 08:24:24;;;;;;;6.03;4.93;;;13.10;99.90;13.00;97473.00;;;;5085052;28;20565;-69
2021/09/22 08:27:13;;;;;;;4.60;4.20;;;13.10;99.90;13.00;97459.00;;;;5085024;28;20215;-69
2021/09/22 08:30:04;;;;;;;5.97;3.87;;;13.10;99.90;13.10;97473.00;;;;5084956;28;20199;-69
2021/09/22 08:32:53;;;;;;;5.60;4.93;;;13.10;99.90;13.20;97465.00;;;;5086636;28;20223;-69
2021/09/22 08:35:43;;;;;;;6.57;3.70;;;13.10;99.90;13.30;97476.00;;;;5084876;28;20569;-68
2021/09/22 08:38:32;;;;;;;5.63;4.33;;;13.20;99.90;13.40;97468.00;;;;5080474;28;20223;-70
2021/09/22 08:41:21;;;;;;;7.10;4.33;;;13.30;99.90;13.10;97476.00;;;;5085050;28;21127;-69
2021/09/22 08:44:13;;;;;;;5.50;4.20;;;13.30;99.90;13.00;97478.00;;;;5085502;28;20195;-70
2021/09/22 08:47:02;;;;;;;6.23;4.37;;;13.20;99.90;13.10;97479.00;;;;5080308;28;20200;-70
2021/09/22 08:49:51;;;;;;;6.63;4.23;;;13.20;99.90;13.10;97478.00;;;;5086055;28;20562;-68
2021/09/22 08:52:44;;;;;;;5.83;4.20;;;13.20;99.90;13.20;97481.00;;;;5082157;28;20211;-70
2021/09/22 08:55:33;;;;;;;4.67;3.80;;;13.20;99.90;13.30;97482.00;;;;5083486;28;20198;-69
2021/09/22 08:58:22;;;;;;;4.73;3.50;;;13.20;99.90;13.30;97476.00;;;;5083410;28;20265;-68
2021/09/22 09:01:13;;;;;;;4.50;3.80;;;13.20;99.90;13.40;97493.00;;;;5084355;28;20610;-69
2021/09/22 09:04:15;;;;;;;4.03;3.50;;;13.30;99.90;13.30;97492.00;;;;5081893;28;20199;-68
2021/09/22 09:07:05;;;;;;;6.13;4.17;;;13.30;99.90;13.20;97484.00;;;;5081007;28;20191;-68
2021/09/22 09:10:07;;;;;;;4.93;4.40;;;13.30;99.90;13.40;97474.00;;;;5076944;28;20678;-67
2021/09/22 09:13:04;;;;;;;5.10;3.67;;;13.30;99.90;13.40;97462.00;;;;5084688;28;20218;-68
2021/09/22 09:15:53;;;;;;;6.33;4.13;;;13.30;99.90;13.60;97475.00;;;;5082609;28;20758;-68
2021/09/22 09:18:47;;;;;;;6.80;4.17;;;13.40;99.90;13.70;97475.00;;;;5082896;28;20199;-70
2021/09/22 09:21:55;;;;;;;3.33;3.07;;;13.50;99.90;13.90;97487.00;;;;5076450;28;20235;-69
2021/09/22 09:24:47;;;;;;;2.67;2.47;;;13.70;99.90;14.10;97495.00;;;;5085612;28;20199;-70
2021/09/22 09:27:38;;;;;;;3.80;2.17;;;13.80;99.90;14.10;97490.00;;;;5084022;28;20206;-69
2021/09/22 09:30:29;;;;;;;2.73;2.53;;;13.90;99.90;14.40;97499.00;;;;5084904;28;20195;-69
2021/09/22 09:33:41;;;;;;;3.33;3.03;;;14.10;99.90;14.60;97485.00;;;;5083753;28;20223;-69
2021/09/22 09:36:33;;;;;;;2.67;2.47;;;14.20;99.90;14.60;97498.00;;;;5076861;28;20195;-67
2021/09/22 09:39:23;;;;;;;2.27;2.07;;;14.40;99.90;14.50;97511.00;;;;5072335;28;20251;-67
2021/09/22 09:42:12;;;;;;;2.93;2.30;;;14.40;99.90;14.60;97510.00;;;;5077096;28;20220;-69
2021/09/22 09:45:04;;;;;;;2.90;2.60;;;14.50;99.90;14.80;97500.00;;;;5082965;28;20207;-68
2021/09/22 09:48:01;;;;;;;2.47;2.20;;;14.50;99.90;14.70;97522.00;;;;5076841;28;20683;-69
2021/09/22 09:50:53;;;;;;;2.30;2.10;;;14.60;99.90;14.70;97500.00;;;;5081700;28;20666;-68
2021/09/22 09:53:41;;;;;;;2.87;2.17;;;14.60;99.90;14.70;97516.00;;;;5081823;28;20203;-67
2021/09/22 09:56:32;;;;;;;3.00;2.37;;;14.60;99.90;14.80;97515.00;;;;5082244;28;20205;-68
2021/09/22 09:59:23;;;;;;;2.70;1.93;;;14.70;99.90;14.70;97503.00;;;;5078989;28;20195;-67
2021/09/22 10:02:28;;;;;;;2.40;2.20;;;14.60;99.90;14.60;97512.00;;;;5078399;28;20223;-68
2021/09/22 10:05:17;;;;;;;2.90;1.80;;;14.60;99.90;14.60;97516.00;;;;5084787;28;20195;-69
2021/09/22 10:08:06;;;;;;;1.80;1.70;;;14.60;99.90;14.60;97513.00;;;;5078216;28;20615;-69
2021/09/22 10:10:55;;;;;;;2.00;1.90;;;14.60;99.90;14.60;97510.00;;;;5081593;28;20204;-69
2021/09/22 10:13:46;;;;;;;2.07;1.70;;;14.60;99.90;14.60;97514.00;;;;5081474;28;20207;-69
2021/09/22 10:16:36;;;;;;;1.90;1.70;;;14.60;99.90;14.50;97501.00;;;;5083102;28;20191;-69
2021/09/22 10:19:27;;;;;;;1.40;1.30;;;14.60;99.90;15.20;97489.00;;;;5077217;28;20210;-70
2021/09/22 10:22:16;;;;;;;1.53;1.30;;;14.80;99.90;15.50;97496.00;;;;5073691;28;20219;-68
2021/09/22 10:25:08;;;;;;;1.90;1.20;;;15.00;99.90;15.70;97513.00;;;;5081993;28;20207;-70
2021/09/22 10:27:58;;;;;;;1.53;1.43;;;15.20;99.90;15.80;97500.00;;;;5077231;28;20212;-69
2021/09/22 10:30:48;;;;;;;1.83;1.60;;;15.40;99.90;16.10;97513.00;;;;5081701;28;20207;-69
2021/09/22 10:33:37;;;;;;;1.57;1.40;;;15.60;99.90;15.10;97496.00;;;;5082927;28;20218;-69
2021/09/22 10:36:38;;;;;;;2.20;1.80;;;15.60;99.50;15.70;97491.00;;;;5072418;28;20196;-69
2021/09/22 10:39:41;;;;;;;1.50;1.40;;;15.60;99.60;16.10;97498.00;;;;5069198;28;20198;-69
2021/09/22 10:42:34;;;;;;;2.53;1.90;;;15.70;99.90;15.80;97492.00;;;;5080871;28;20226;-69
2021/09/22 10:45:24;;;;;;;1.70;1.43;;;15.80;99.90;16.10;97511.00;;;;5088029;28;20203;-69
2021/09/22 10:48:18;;;;;;;1.60;1.40;;;15.90;99.60;15.90;97512.00;;;;5082717;28;20203;-69
2021/09/22 10:51:09;;;;;;;2.00;0.83;;;16.00;98.20;16.00;97504.00;;;;5055420;28;20209;-69
2021/09/22 10:54:12;;;;;;;1.30;1.20;;;16.00;96.90;16.10;97503.00;;;;5082835;28;20207;-69
2021/09/22 10:57:02;;;;;;;1.20;1.07;;;16.00;96.40;16.70;97516.00;;;;5082374;28;20210;-68
2021/09/22 11:00:10;;;;;;;0.73;0.73;;;16.20;98.00;16.80;97498.00;;;;5082680;28;20207;-69
2021/09/22 11:02:59;;;;;;;1.40;0.87;;;16.40;97.00;16.70;97496.00;;;;5085551;28;20239;-67
2021/09/22 11:05:49;;;;;;;0.67;0.67;;;16.50;94.60;16.70;97505.00;;;;5087285;28;20749;-69
2021/09/22 11:08:38;;;;;;;0.70;0.67;;;16.60;93.90;16.50;97490.00;;;;5076985;28;20208;-69
2021/09/22 11:12:04;;;;;;;0.80;0.80;;;17.00;93.20;16.90;97494.00;;;;5075368;28;20219;-69
2021/09/22 11:14:59;;;;;;;0.77;0.70;;;16.70;92.60;17.00;97533.00;;;;5081409;28;20911;-69
2021/09/22 11:17:49;;;;;;;3.70;0.80;;;16.90;92.00;15.70;97521.00;;;;5079977;28;20200;-67
2021/09/22 11:20:37;;;;;;;0.70;0.60;;;16.50;90.20;16.20;97519.00;;;;5073935;28;20202;-69
2021/09/22 11:23:29;;;;;;;0.97;0.70;;;16.50;91.40;16.40;97512.00;;;;5091848;28;20219;-68
2021/09/22 11:26:18;;;;;;;0.83;0.60;;;16.40;91.40;16.80;97482.00;;;;5084805;28;20215;-69
2021/09/22 11:29:08;;;;;;;0.90;0.43;;;16.60;91.10;17.60;97525.00;;;;5083550;28;20207;-67
2021/09/22 11:31:57;;;;;;;1.73;0.80;;;16.90;91.40;17.00;97450.00;;;;5086150;28;20231;-69
2021/09/22 11:34:49;;;;;;;3.60;0.87;;;17.10;88.50;16.80;97511.00;;;;5089248;28;20207;-68
2021/09/22 11:37:40;;;;;;;0.60;0.50;;;17.20;87.70;17.10;97513.00;;;;5083569;28;20214;-68
2021/09/22 11:40:32;;;;;;;0.60;0.60;;;17.20;87.50;18.10;97521.00;;;;5091592;28;20226;-68
2021/09/22 11:43:21;;;;;;;0.73;0.67;;;17.50;87.00;18.70;97492.00;;;;5083383;28;20223;-68
2021/09/22 11:46:11;;;;;;;1.13;0.70;;;17.80;87.90;18.90;97514.00;;;;5082919;28;20309;-68
2021/09/22 11:49:05;;;;;;;0.40;0.40;;;18.10;88.10;18.70;97504.00;;;;5081286;28;20884;-68
2021/09/22 11:52:07;;;;;;;1.03;0.73;;;18.20;82.70;19.00;97499.00;;;;5081397;28;20602;-68
2021/09/22 11:54:57;;;;;;;1.40;0.93;;;18.50;80.20;19.10;97482.00;;;;5083038;28;20701;-68
2021/09/22 11:57:46;;;;;;;0.80;0.60;;;18.80;80.60;18.30;97495.00;;;;5082577;28;20218;-68
2021/09/22 12:00:36;;;;;;;0.67;0.60;;;18.60;77.50;17.10;97509.00;;;;5081482;28;20845;-67
2021/09/22 12:03:29;;;;;;;2.47;0.50;;;18.30;76.50;17.20;97515.00;;;;5084741;28;20219;-66
2021/09/22 12:06:18;;;;;;;1.60;1.40;;;17.90;77.00;18.60;97462.00;;;;5081891;28;20231;-66
2021/09/22 12:09:07;;;;;;;1.13;0.53;;;18.10;78.80;18.90;97499.00;;;;5082328;28;20206;-67
2021/09/22 12:12:08;;;;;;;2.00;0.50;;;18.50;75.50;18.00;97471.00;;;;5085472;28;20228;-68
2021/09/22 12:15:00;;;;;;;1.53;1.07;;;18.40;76.10;17.50;97522.00;;;;5082401;28;20208;-68
2021/09/22 12:17:49;;;;;;;0.80;0.60;;;18.30;72.90;17.00;97472.00;;;;5078877;28;20207;-66
2021/09/22 12:20:41;;;;;;;3.77;0.83;;;17.90;74.80;17.40;97525.00;;;;5082898;28;20206;-66
2021/09/22 12:23:33;;;;;;;0.60;0.60;;;17.80;75.10;17.50;97487.00;;;;5082385;28;20597;-69
2021/09/22 12:26:22;;;;;;;0.67;0.67;;;17.50;74.30;17.70;97511.00;;;;5078177;28;20207;-65
2021/09/22 12:29:13;;;;;;;2.07;0.97;;;17.80;74.40;17.70;97478.00;;;;5081084;28;20211;-67
2021/09/22 12:32:07;;;;;;;2.23;2.03;;;17.80;74.40;18.00;97492.00;;;;5074476;28;20228;-70
2021/09/22 12:34:58;;;;;;;0.80;0.80;;;18.00;73.60;18.20;97531.00;;;;5077132;28;20195;-66
2021/09/22 12:37:55;;;;;;;2.00;0.90;;;18.30;71.30;18.10;97480.00;;;;5083738;28;20207;-66
2021/09/22 12:40:47;;;;;;;2.40;1.47;;;18.50;69.80;18.60;97495.00;;;;5081971;28;20206;-67
2021/09/22 12:43:36;;;;;;;1.47;1.00;;;18.50;70.40;19.20;97476.00;;;;5077813;28;20200;-67
2021/09/22 12:46:33;;;;;;;0.73;0.60;;;18.70;69.40;19.10;97477.00;;;;5080325;28;20724;-67
2021/09/22 12:49:24;;;;;;;1.07;0.80;;;18.90;66.30;19.80;97479.00;;;;5078343;28;20823;-68
2021/09/22 12:52:22;;;;;;;1.53;0.87;;;19.20;66.70;17.70;97462.00;;;;5083679;28;20613;-68
2021/09/22 12:55:31;;;;;;;2.13;1.07;;;19.00;63.20;19.50;97512.00;;;;5084746;28;20198;-67